Terminal Aerodrome Forecast
Issued by NWS

Home | Current Version | Previous Version | Graphics & Text | Print | Product List | Glossary On
Versions: 1 2 3 4 5 6 7 8 9 10 11 12 13 14 15 16 17 18 19 20 21
000
FTUS43 KTOP 171100
TAFMHK
TAF
KMHK 171136Z 1712/1812 07005KT P6SM BKN015
     FM171700 08004KT P6SM SCT015 BKN050
     FM172300 10005KT P6SM VCSH OVC035
     FM180100 09005KT 4SM -SN BR OVC015
     FM180600 09003KT 2SM -SN BR OVC007=

USA.gov is the U.S. government's official web portal to all federal, state and local government web resources and services.